Flight Track Log - Related Links

Times and Time Zones

All times are in EDT time to prevent confusion due to time zone crossing. See the EJA729 flight status page for this flight to view local times or setup timezone preferences in your user account.

Time Position Orientation Groundspeed Altitude Reporting Facility
EDT Latitude Longitude Course Direction KTS MPH feet Rate Location/Type
Mon 02:16:44 AM 33.9336 -118.4467 121° Southeast 249 287 1,500  Level Los Angeles Center
Mon 02:17:45 AM 33.8900 -118.5169 233° Southwest 253 291 5,300 3,246 Climbing Los Angeles Center
Mon 02:18:46 AM 33.8186 -118.5361 193° South 297 342 8,100 3,148 Climbing Los Angeles Center
Mon 02:19:47 AM 33.7383 -118.5269 175° South 295 339 11,700 3,492 Climbing Los Angeles Center
Mon 02:20:48 AM 33.6811 -118.4644 138° Southeast 313 360 15,200 3,372 Climbing Los Angeles Center
Mon 02:21:48 AM 33.6456 -118.3403 109° East 338 389 18,500 3,124 Climbing Los Angeles Center
Mon 02:22:00 AM 33.6649 -118.4132 121° Southeast  Level FlightAware Approximate
Mon 02:22:49 AM 33.6447 -118.2228 90° East 359 413 21,500  Level Los Angeles Center
Mon 02:23:50 AM 33.6447 -118.0956 90° East 381 438 23,300 1,918 Climbing Los Angeles Center
Mon 02:24:51 AM 33.6433 -117.9589 91° East 407 468 25,400 2,115 Climbing Los Angeles Center
Mon 02:25:52 AM 33.6431 -117.8203 90° East 415 478 27,600 2,083 Climbing Los Angeles Center
Mon 02:26:52 AM 33.6425 -117.6789 90° East 421 484 29,600 2,083 Climbing Los Angeles Center
Mon 02:27:53 AM 33.6419 -117.5361 90° East 427 491 31,800 2,115 Climbing Los Angeles Center
Mon 02:28:54 AM 33.6406 -117.3944 91° East 428 493 33,900 1,869 Climbing Los Angeles Center
Mon 02:29:55 AM 33.6403 -117.2561 90° East 420 483 35,600 1,438 Climbing Los Angeles Center
Mon 02:30:55 AM 33.6419 -117.1147 89° East 423 487 36,800 694 Climbing Los Angeles Center
Mon 02:31:56 AM 33.6417 -116.9681 90° East 436 502 37,000 49 Climbing Los Angeles Center
Mon 02:32:57 AM 33.6389 -116.8217 91° East 435 501 36,900  Descending Los Angeles Center
Mon 02:33:57 AM 33.6672 -116.6856 76° East 425 489 37,000 50 Climbing Los Angeles Center
Mon 02:34:58 AM 33.7169 -116.5289 69° East 419 482 37,000  Level Los Angeles Center
Mon 02:35:59 AM 33.7575 -116.3978 70° East 416 479 37,000  Level Los Angeles Center
Mon 02:37:00 AM 33.7986 -116.2672 69° East 417 480 37,000  Level Los Angeles Center
Mon 02:38:00 AM 33.8411 -116.1350 69° East 424 488 37,000  Level Los Angeles Center
Mon 02:39:01 AM 33.8844 -116.0003 69° East 429 494 37,000  Level Los Angeles Center
Mon 02:40:02 AM 33.9264 -115.8625 70° East 435 501 37,000  Level Los Angeles Center
Mon 02:41:02 AM 33.9697 -115.7244 69° East 439 505 37,000  Level Los Angeles Center
Mon 02:42:03 AM 34.0122 -115.5828 70° East 445 512 37,000  Level Los Angeles Center
Mon 02:43:04 AM 34.0550 -115.4414 70° East 448 516 37,000  Level Los Angeles Center
Mon 02:44:04 AM 34.0997 -115.3014 69° East 450 518 37,000  Level Los Angeles Center
Mon 02:45:05 AM 34.1425 -115.1619 70° East 445 512 37,000  Level Los Angeles Center
Mon 02:46:18 AM 34.1856 -115.0228 69° East 443 510 37,000  Level Los Angeles Center
Mon 02:47:18 AM 34.2358 -114.8558 70° East 442 509 37,000  Level Los Angeles Center
Mon 02:48:19 AM 34.2778 -114.7167 70° East 442 509 37,000  Level Los Angeles Center
Mon 02:49:20 AM 34.3214 -114.5767 69° East 445 512 37,000  Level Los Angeles Center
Mon 02:50:20 AM 34.3633 -114.4347 70° East 448 516 37,000  Level Los Angeles Center
Mon 02:51:21 AM 34.4044 -114.2928 71° East 448 516 37,000  Level Los Angeles Center
Mon 02:52:22 AM 34.4467 -114.1514 70° East 448 516 37,000  Level Los Angeles Center
Mon 02:53:27 AM 34.4972 -113.9828 70° East 448 516 37,000  Level Albuquerque Center
Mon 02:54:28 AM 34.5383 -113.8403 71° East 448 516 37,000  Level Albuquerque Center
Mon 02:55:28 AM 34.5806 -113.6983 70° East 448 516 37,000  Level Albuquerque Center
Mon 02:56:29 AM 34.6331 -113.5772 62° Northeast 448 516 37,000  Level Albuquerque Center
Mon 02:57:29 AM 34.6900 -113.4431 63° Northeast 449 517 37,000  Level Albuquerque Center
Mon 02:58:29 AM 34.7558 -113.2819 64° Northeast 449 517 37,000  Level Albuquerque Center
Mon 02:59:30 AM 34.8117 -113.1478 63° Northeast 448 516 37,000  Level Albuquerque Center
Mon 03:00:30 AM 34.8672 -113.0136 63° Northeast 450 518 37,000  Level Albuquerque Center
Mon 03:01:30 AM 34.9225 -112.8800 63° Northeast 449 517 37,000  Level Albuquerque Center
Mon 03:02:31 AM 34.9775 -112.7450 64° Northeast 450 518 37,000  Level Albuquerque Center
Mon 03:03:31 AM 35.0322 -112.6114 63° Northeast 449 517 37,000  Level Albuquerque Center
Mon 03:04:31 AM 35.0867 -112.4772 64° Northeast 447 514 37,000  Level Albuquerque Center
Mon 03:05:32 AM 35.1406 -112.3442 64° Northeast 444 511 37,000  Level Albuquerque Center
Mon 03:06:32 AM 35.1953 -112.2103 63° Northeast 445 512 37,000  Level Albuquerque Center
Mon 03:07:32 AM 35.2500 -112.0753 64° Northeast 446 513 37,000  Level Albuquerque Center
Mon 03:08:33 AM 35.3028 -111.9392 65° Northeast 448 516 37,000  Level Albuquerque Center
Mon 03:09:33 AM 35.3572 -111.8036 64° Northeast 448 516 37,000  Level Albuquerque Center
Mon 03:10:34 AM 35.4122 -111.6669 64° Northeast 450 518 37,000  Level Albuquerque Center
Mon 03:11:34 AM 35.4764 -111.5022 64° Northeast 450 518 37,000  Level Albuquerque Center
Mon 03:12:34 AM 35.5250 -111.3792 64° Northeast 445 512 37,000  Level Albuquerque Center
Mon 03:13:35 AM 35.5858 -111.2247 64° Northeast 448 516 37,000  Level Albuquerque Center
Mon 03:14:35 AM 35.6350 -111.0925 65° Northeast 446 513 37,000  Level Albuquerque Center
Mon 03:15:35 AM 35.6869 -110.9661 63° Northeast 436 502 37,000  Level Albuquerque Center
Mon 03:16:36 AM 35.7375 -110.8392 64° Northeast 432 497 37,000  Level Albuquerque Center
Mon 03:17:36 AM 35.8231 -110.7139 50° Northeast 429 494 37,000  Level Albuquerque Center
Mon 03:18:42 AM 35.9094 -110.5900 49° Northeast 432 497 37,000  Level Denver Center
Mon 03:19:43 AM 35.9869 -110.4778 50° Northeast 431 496 37,000  Level Denver Center
Mon 03:20:43 AM 36.0653 -110.3644 49° Northeast 433 498 37,000  Level Denver Center
Mon 03:21:44 AM 36.1419 -110.2517 50° Northeast 432 497 37,000  Level Denver Center
Mon 03:22:44 AM 36.2214 -110.1378 49° Northeast 435 501 37,000  Level Denver Center
Mon 03:23:44 AM 36.2981 -110.0256 50° Northeast 439 505 37,000  Level Denver Center
Mon 03:24:45 AM 36.3733 -109.9142 50° Northeast 438 504 37,000  Level Denver Center
Mon 03:25:45 AM 36.4625 -109.7856 49° Northeast 438 504 37,000  Level Denver Center
Mon 03:26:46 AM 36.5392 -109.6733 50° Northeast 441 507 37,000  Level Denver Center
Mon 03:27:46 AM 36.6144 -109.5611 50° Northeast 440 506 37,000  Level Denver Center
Mon 03:28:46 AM 36.7025 -109.4297 50° Northeast 440 506 37,000  Level Denver Center
Mon 03:29:47 AM 36.7764 -109.3189 50° Northeast 434 499 37,000  Level Denver Center
Mon 03:30:47 AM 36.8528 -109.2064 50° Northeast 442 509 37,000  Level Denver Center
Mon 03:31:48 AM 36.9272 -109.0944 50° Northeast 438 504 37,000  Level Denver Center
Mon 03:32:48 AM 37.0131 -108.9636 51° Northeast 434 499 37,000  Level Denver Center
Mon 03:33:49 AM 37.0856 -108.8528 51° Northeast 430 495 37,000  Level Denver Center
Mon 03:34:49 AM 37.1592 -108.7431 50° Northeast 429 494 37,000  Level Denver Center
Mon 03:35:50 AM 37.2314 -108.6311 51° Northeast 429 494 37,000  Level Denver Center
Mon 03:36:50 AM 37.3161 -108.5011 51° Northeast 431 496 37,000  Level Denver Center
Mon 03:37:50 AM 37.3889 -108.3906 50° Northeast 429 494 37,000  Level Denver Center
Mon 03:38:51 AM 37.4619 -108.2789 50° Northeast 430 495 37,000  Level Denver Center
Mon 03:39:51 AM 37.5461 -108.1481 51° Northeast 429 494 37,000  Level Denver Center
Mon 03:40:52 AM 37.6172 -108.0342 52° Northeast 432 497 37,000  Level Denver Center
Mon 03:41:52 AM 37.6883 -107.9258 50° Northeast 422 486 37,000  Level Denver Center
Mon 03:42:53 AM 37.7711 -107.7958 51° Northeast 423 487 37,000  Level Denver Center
Mon 03:43:53 AM 37.8428 -107.6844 51° Northeast 426 490 37,000  Level Denver Center
Mon 03:44:54 AM 37.9139 -107.5728 51° Northeast 426 490 37,000  Level Denver Center
Mon 03:45:54 AM 37.9847 -107.4606 51° Northeast 424 488 37,000  Level Denver Center
Mon 03:46:54 AM 38.0681 -107.3289 51° Northeast 431 496 37,000  Level Denver Center
Mon 03:47:55 AM 38.1344 -107.2203 52° Northeast 432 497 37,000 -793 Level Denver Center
Mon 03:48:55 AM 38.2117 -107.0994 51° Northeast 433 498 35,400 -1,636 Descending Denver Center
Mon 03:49:56 AM 38.2853 -106.9822 51° Northeast 426 490 33,700 -1,686 Descending Denver Center
Mon 03:50:56 AM 38.3561 -106.8678 52° Northeast 413 475 32,000 -1,587 Descending Denver Center
Mon 03:51:57 AM 38.4258 -106.7561 51° Northeast 405 466 30,500 -1,240 Descending Denver Center
Mon 03:52:57 AM 38.4933 -106.6461 52° Northeast 398 458 29,500 -1,041 Descending Denver Center
Mon 03:53:58 AM 38.5658 -106.5269 52° Northeast 421 484 28,400 -1,091 Descending Denver Center
Mon 03:54:58 AM 38.6444 -106.4011 51° Northeast 456 525 27,300 -1,091 Descending Denver Center
Mon 03:55:59 AM 38.7231 -106.2694 53° Northeast 467 537 26,200 -1,140 Descending Denver Center
Mon 03:56:59 AM 38.8025 -106.1386 52° Northeast 446 513 25,000 -1,190 Descending Denver Center
Mon 03:58:00 AM 38.8872 -106.0031 51° Northeast 436 502 23,800 -1,041 Descending Denver Center
Mon 03:59:00 AM 38.9492 -105.8978 53° Northeast 431 496 22,900 -992 Descending Denver Center
Mon 04:00:01 AM 39.0278 -105.7675 52° Northeast 437 503 21,800 -1,140 Descending Denver Center
Mon 04:01:01 AM 39.1092 -105.6306 53° Northeast 432 497 20,600 -1,140 Descending Denver Center
Mon 04:02:02 AM 39.1806 -105.5097 53° Northeast 419 482 19,500 -793 Descending Denver Center
Mon 04:03:02 AM 39.2519 -105.3944 51° Northeast 410 472 19,000 -793 Descending Denver Center
Mon 04:04:03 AM 39.3022 -105.3086 53° Northeast 395 455 17,900 -1,636 Descending Denver Center
Mon 04:05:03 AM 39.3733 -105.1903 52° Northeast 337 388 15,700 -1,983 Descending Denver Center
Mon 04:06:04 AM 39.4242 -105.1025 53° Northeast 307 353 13,900 -1,983 Descending Denver Center
Mon 04:07:04 AM 39.4769 -105.0281 47° Northeast 281 323 11,700 -2,182 Descending Denver Center
Mon 04:08:05 AM 39.5383 -104.9711 36° Northeast 274 315 9,500 -1,983 Descending Denver Center
Mon 04:09:05 AM 39.5967 -104.9281 30° Northeast 245 282 7,700 -1,289 Descending Denver Center
Mon 04:10:06 AM 39.6331 -104.8869 41° Northeast 188 216 6,900 -793 Descending Denver Center
Mon 04:11:06 AM 39.6019 -104.8511 138° Southeast 154 177 6,100 -545 Descending Denver Center
Mon 04:12:07 AM 39.5711 -104.8514 180° South 99 114 5,800 -295 Descending Denver Center

Login

Don't have an account? Register now (free) for customized features, flight alerts, and more!